createdAt,value
2022-12-22T00:01:56.644Z,8.30
2022-12-22T00:05:17.491Z,8.30
2022-12-22T00:08:38.015Z,8.40
2022-12-22T00:11:58.427Z,8.30
2022-12-22T00:15:18.780Z,8.40
2022-12-22T00:18:39.318Z,8.30
2022-12-22T00:21:59.858Z,8.40
2022-12-22T00:25:20.424Z,8.40
2022-12-22T00:28:40.772Z,8.50
2022-12-22T00:32:01.509Z,8.40
2022-12-22T00:35:21.882Z,8.30
2022-12-22T00:38:42.378Z,8.40
2022-12-22T00:42:02.964Z,8.40
2022-12-22T00:45:23.399Z,8.50
2022-12-22T00:48:45.521Z,8.50
2022-12-22T00:52:06.135Z,8.50
2022-12-22T00:55:35.413Z,8.50
2022-12-22T00:58:56.175Z,8.50
2022-12-22T01:02:16.683Z,8.50
2022-12-22T01:05:36.987Z,8.50
2022-12-22T01:08:57.514Z,8.50
2022-12-22T01:12:17.759Z,8.50
2022-12-22T01:15:39.305Z,8.40
2022-12-22T01:18:59.654Z,8.40
2022-12-22T01:22:20.811Z,8.50
2022-12-22T01:25:41.282Z,8.70
2022-12-22T01:29:01.435Z,8.70
2022-12-22T01:32:21.913Z,8.70
2022-12-22T01:35:45.780Z,8.70
2022-12-22T01:39:06.325Z,8.60
2022-12-22T01:42:30.526Z,8.60
2022-12-22T01:45:54.080Z,8.50
2022-12-22T01:49:14.611Z,8.60
2022-12-22T01:52:37.482Z,8.50
2022-12-22T01:55:57.915Z,8.40
2022-12-22T01:59:22.526Z,8.40
2022-12-22T02:02:44.765Z,8.30
2022-12-22T02:06:59.538Z,8.30
2022-12-22T02:10:32.174Z,8.30
2022-12-22T02:14:30.124Z,8.40
2022-12-22T02:18:01.384Z,8.40
2022-12-22T02:21:26.374Z,8.40
2022-12-22T02:24:46.819Z,8.30
2022-12-22T02:28:09.132Z,8.40
2022-12-22T02:31:29.660Z,8.40
2022-12-22T02:34:49.938Z,8.40
2022-12-22T02:38:21.021Z,8.40
2022-12-22T02:41:50.086Z,8.50
2022-12-22T02:45:53.030Z,8.50
2022-12-22T02:49:19.642Z,8.50
2022-12-22T02:52:55.296Z,8.50
2022-12-22T02:56:21.433Z,8.50
2022-12-22T02:59:42.249Z,8.50
2022-12-22T03:03:02.966Z,8.60
2022-12-22T03:06:23.545Z,8.60
2022-12-22T03:09:43.893Z,8.60
2022-12-22T03:13:04.264Z,8.70
2022-12-22T03:16:24.649Z,8.60
2022-12-22T03:19:45.019Z,8.60
2022-12-22T03:23:05.585Z,8.60
2022-12-22T03:26:07.305Z,8.60
2022-12-22T03:29:09.065Z,8.60
2022-12-22T03:32:10.823Z,8.70
2022-12-22T03:35:12.541Z,8.70
2022-12-22T03:38:14.261Z,8.70
2022-12-22T03:41:34.464Z,8.70
2022-12-22T03:44:55.034Z,8.70
2022-12-22T03:47:56.701Z,8.70
2022-12-22T03:50:58.419Z,8.60
2022-12-22T03:54:00.262Z,8.60
2022-12-22T03:57:02.065Z,8.70
2022-12-22T04:00:04.645Z,8.60
2022-12-22T04:03:14.293Z,8.60
2022-12-22T04:06:19.448Z,8.70
2022-12-22T04:09:22.339Z,8.60
2022-12-22T04:12:42.977Z,8.60
2022-12-22T04:15:44.708Z,8.60
2022-12-22T04:18:46.463Z,8.60
2022-12-22T04:21:48.146Z,8.60
2022-12-22T04:24:49.785Z,8.60
2022-12-22T04:27:51.587Z,8.60
2022-12-22T04:30:53.297Z,8.60
2022-12-22T04:33:55.098Z,8.60
2022-12-22T04:37:04.405Z,8.60
2022-12-22T04:40:11.787Z,8.60
2022-12-22T04:43:13.467Z,8.70
2022-12-22T04:46:15.285Z,8.60
2022-12-22T04:49:17.042Z,8.60
2022-12-22T04:52:18.778Z,8.60
2022-12-22T04:55:20.457Z,8.70
2022-12-22T04:58:22.371Z,8.70
2022-12-22T05:01:24.263Z,8.70
2022-12-22T05:04:26.151Z,8.60
2022-12-22T05:07:27.991Z,8.60
2022-12-22T05:10:30.644Z,8.60
2022-12-22T05:13:32.889Z,8.60
2022-12-22T05:16:34.708Z,8.60
2022-12-22T05:19:36.723Z,8.60
2022-12-22T05:22:38.507Z,8.60
2022-12-22T05:25:40.182Z,8.70
2022-12-22T05:28:43.514Z,8.70
2022-12-22T05:31:47.272Z,8.80
2022-12-22T05:34:49.351Z,8.80
2022-12-22T05:37:51.040Z,8.70
2022-12-22T05:40:55.653Z,8.70
2022-12-22T05:44:01.601Z,8.70
2022-12-22T05:47:03.347Z,8.70
2022-12-22T05:50:06.337Z,8.60
2022-12-22T05:53:08.626Z,8.60
2022-12-22T05:56:10.382Z,8.60
2022-12-22T05:59:12.335Z,8.60
2022-12-22T06:02:14.236Z,8.50
2022-12-22T06:05:16.162Z,8.50
2022-12-22T06:08:17.921Z,8.60
2022-12-22T06:11:19.791Z,8.60
2022-12-22T06:14:21.523Z,8.60
2022-12-22T06:17:23.469Z,8.60
2022-12-22T06:20:25.157Z,8.60
2022-12-22T06:23:26.876Z,8.60
2022-12-22T06:26:28.601Z,8.60
2022-12-22T06:29:30.319Z,8.50
2022-12-22T06:32:32.037Z,8.50
2022-12-22T06:35:33.704Z,8.60
2022-12-22T06:38:35.582Z,8.60
2022-12-22T06:41:55.951Z,8.50
2022-12-22T06:44:57.720Z,8.40
2022-12-22T06:47:59.443Z,8.50
2022-12-22T06:51:01.387Z,8.50
2022-12-22T06:54:03.355Z,8.50
2022-12-22T06:57:05.040Z,8.50
2022-12-22T07:00:07.756Z,8.50
2022-12-22T07:03:09.867Z,8.50
2022-12-22T07:06:11.796Z,8.60
2022-12-22T07:09:13.475Z,8.50
2022-12-22T07:12:15.129Z,8.60
2022-12-22T07:15:16.897Z,8.50
2022-12-22T07:18:18.620Z,8.50
2022-12-22T07:21:20.309Z,8.50
2022-12-22T07:24:25.701Z,8.50
2022-12-22T07:27:27.358Z,8.50
2022-12-22T07:30:29.304Z,8.70
2022-12-22T07:33:31.678Z,8.80
2022-12-22T07:36:33.453Z,8.80
2022-12-22T07:39:35.185Z,8.70
2022-12-22T07:42:45.696Z,8.90
2022-12-22T07:45:47.472Z,9.00
2022-12-22T07:49:07.956Z,9.00
2022-12-22T07:52:09.764Z,9.00
2022-12-22T07:55:11.482Z,9.00
2022-12-22T07:58:13.170Z,9.00
2022-12-22T08:01:14.893Z,9.10
2022-12-22T08:04:17.169Z,9.20
2022-12-22T08:07:18.896Z,9.20
2022-12-22T08:10:20.952Z,9.20
2022-12-22T08:13:22.711Z,9.20
2022-12-22T08:16:24.453Z,9.30
2022-12-22T08:19:26.238Z,9.30
2022-12-22T08:22:29.962Z,9.30
2022-12-22T08:25:33.850Z,9.30
2022-12-22T08:28:41.161Z,9.30
2022-12-22T08:31:43.858Z,9.30
2022-12-22T08:34:45.769Z,9.30
2022-12-22T08:37:48.525Z,9.30
2022-12-22T08:40:50.500Z,9.30
2022-12-22T08:43:52.254Z,9.30
2022-12-22T08:46:55.892Z,9.30
2022-12-22T08:49:57.681Z,9.30
2022-12-22T08:53:18.526Z,9.40
2022-12-22T08:56:30.270Z,9.40
2022-12-22T08:59:32.175Z,9.40
2022-12-22T09:02:34.416Z,9.40
2022-12-22T09:05:38.529Z,9.10
2022-12-22T09:08:40.177Z,9.40
2022-12-22T09:11:42.412Z,9.40
2022-12-22T09:14:44.230Z,9.40
2022-12-22T09:17:45.969Z,9.50
2022-12-22T09:20:47.697Z,9.50
2022-12-22T09:23:49.661Z,9.60
2022-12-22T09:26:51.486Z,9.50
2022-12-22T09:29:53.155Z,9.60
2022-12-22T09:32:55.250Z,9.60
2022-12-22T09:35:57.464Z,9.50
2022-12-22T09:39:10.968Z,9.60
2022-12-22T09:42:21.073Z,9.70
2022-12-22T09:45:22.909Z,9.70
2022-12-22T09:48:36.931Z,9.80
2022-12-22T09:51:49.302Z,9.80
2022-12-22T09:54:51.262Z,9.80
2022-12-22T09:57:56.705Z,9.70
2022-12-22T10:01:27.440Z,9.70
2022-12-22T10:04:45.880Z,9.60
2022-12-22T10:07:47.606Z,9.60
2022-12-22T10:10:53.778Z,9.50
2022-12-22T10:13:55.457Z,9.50
2022-12-22T10:17:17.318Z,9.50
2022-12-22T10:20:25.925Z,9.40
2022-12-22T10:23:30.558Z,9.40
2022-12-22T10:26:34.286Z,9.40
2022-12-22T10:29:36.372Z,9.40
2022-12-22T10:32:38.081Z,9.40
2022-12-22T10:35:53.048Z,9.40
2022-12-22T10:39:05.185Z,9.40
2022-12-22T10:42:16.376Z,9.40
2022-12-22T10:45:20.669Z,9.40
2022-12-22T10:48:34.173Z,9.50
2022-12-22T10:51:36.052Z,9.60
2022-12-22T10:54:38.141Z,9.60
2022-12-22T10:57:39.843Z,9.70
2022-12-22T11:00:41.975Z,9.80
2022-12-22T11:03:43.771Z,10.00
2022-12-22T11:06:45.838Z,10.00
2022-12-22T11:09:47.696Z,9.90
2022-12-22T11:13:38.851Z,9.90
2022-12-22T11:16:51.332Z,10.00
2022-12-22T11:20:24.506Z,10.00
2022-12-22T11:23:26.161Z,9.80
2022-12-22T11:26:39.531Z,10.00
2022-12-22T11:29:59.968Z,10.00
2022-12-22T11:33:20.354Z,9.90
2022-12-22T11:36:56.117Z,9.80
2022-12-22T11:40:12.835Z,9.80
2022-12-22T11:43:23.359Z,10.70
2022-12-22T11:46:51.975Z,11.40
2022-12-22T11:50:58.362Z,11.60
2022-12-22T11:54:16.834Z,12.80
2022-12-22T11:57:34.547Z,13.20
2022-12-22T12:01:15.064Z,12.90
2022-12-22T12:04:49.884Z,12.60
2022-12-22T12:07:57.228Z,13.00
2022-12-22T12:11:18.359Z,12.20
2022-12-22T12:14:31.906Z,12.40
2022-12-22T12:17:52.325Z,12.80
2022-12-22T12:21:28.939Z,14.50
2022-12-22T12:24:40.472Z,15.20
2022-12-22T12:28:04.537Z,15.40
2022-12-22T12:31:12.201Z,14.60
2022-12-22T12:34:16.880Z,13.00
2022-12-22T12:37:28.873Z,12.30
2022-12-22T12:40:53.712Z,12.00
2022-12-22T12:43:56.267Z,13.50
2022-12-22T12:47:07.254Z,14.60
2022-12-22T12:50:32.759Z,14.90
2022-12-22T12:53:34.537Z,15.20
2022-12-22T12:57:00.039Z,14.20
2022-12-22T13:00:02.132Z,15.20
2022-12-22T13:03:20.019Z,15.40
2022-12-22T13:06:49.905Z,16.40
2022-12-22T13:10:18.097Z,16.60
2022-12-22T13:13:25.831Z,15.40
2022-12-22T13:16:30.705Z,13.60
2022-12-22T13:19:32.724Z,12.80
2022-12-22T13:22:34.585Z,12.50
2022-12-22T13:25:49.369Z,12.40
2022-12-22T13:29:00.325Z,12.50
2022-12-22T13:32:22.297Z,12.10
2022-12-22T13:35:46.679Z,11.50
2022-12-22T13:39:02.545Z,11.30
2022-12-22T13:42:06.544Z,11.10
2022-12-22T13:45:33.922Z,11.10
2022-12-22T13:48:45.746Z,11.00
2022-12-22T13:51:48.032Z,10.70
2022-12-22T13:54:50.064Z,10.70
2022-12-22T13:57:58.469Z,10.50
2022-12-22T14:01:04.898Z,10.30
2022-12-22T14:04:12.091Z,10.30
2022-12-22T14:07:18.993Z,10.00
2022-12-22T14:10:31.906Z,10.40
2022-12-22T14:13:34.519Z,10.30
2022-12-22T14:16:42.988Z,10.30
2022-12-22T14:19:44.834Z,10.20
2022-12-22T14:22:51.295Z,10.10
2022-12-22T14:25:55.574Z,10.20
2022-12-22T14:28:58.403Z,10.20
2022-12-22T14:32:05.171Z,10.30
2022-12-22T14:35:22.096Z,10.40
2022-12-22T14:38:26.171Z,10.50
2022-12-22T14:41:42.020Z,10.40
2022-12-22T14:44:45.945Z,10.30
2022-12-22T14:47:47.724Z,10.20
2022-12-22T14:50:51.672Z,10.10
2022-12-22T14:53:56.595Z,10.00
2022-12-22T14:57:15.232Z,9.90
2022-12-22T15:00:24.225Z,9.80
2022-12-22T15:03:35.931Z,9.80
2022-12-22T15:06:41.175Z,9.80
2022-12-22T15:13:11.340Z,9.80
2022-12-22T15:16:16.856Z,9.80
2022-12-22T15:19:22.461Z,9.80
2022-12-22T15:22:25.469Z,9.70
2022-12-22T15:25:27.289Z,9.70
2022-12-22T15:28:29.030Z,9.60
2022-12-22T15:31:30.918Z,9.70
2022-12-22T15:34:32.874Z,9.60
2022-12-22T15:37:34.545Z,9.70
2022-12-22T15:40:37.394Z,9.60
2022-12-22T15:43:57.960Z,9.50
2022-12-22T15:47:00.577Z,9.30
2022-12-22T15:50:03.278Z,9.20
2022-12-22T15:53:06.226Z,9.10
2022-12-22T15:56:17.691Z,9.10
2022-12-22T15:59:23.497Z,9.00
2022-12-22T16:02:25.270Z,9.00
2022-12-22T16:05:27.091Z,9.10
2022-12-22T16:08:32.352Z,9.00
2022-12-22T16:11:34.024Z,9.10
2022-12-22T16:14:43.595Z,9.00
2022-12-22T16:17:51.603Z,9.00
2022-12-22T16:20:53.892Z,8.90
2022-12-22T16:23:56.881Z,8.90
2022-12-22T16:26:59.159Z,8.90
2022-12-22T16:30:01.176Z,8.90
2022-12-22T16:33:02.946Z,8.90
2022-12-22T16:36:04.816Z,8.80
2022-12-22T16:39:06.771Z,8.80
2022-12-22T16:45:38.104Z,8.80
2022-12-22T16:48:43.083Z,9.30
2022-12-22T16:51:51.515Z,8.90
2022-12-22T16:54:53.166Z,8.80
2022-12-22T16:57:55.059Z,8.80
2022-12-22T17:00:56.767Z,8.80
2022-12-22T17:04:02.607Z,8.80
2022-12-22T17:07:06.345Z,8.80
2022-12-22T17:10:15.298Z,8.60
2022-12-22T17:13:17.726Z,8.70
2022-12-22T17:16:21.802Z,8.60
2022-12-22T17:19:23.675Z,8.70
2022-12-22T17:22:27.125Z,8.70
2022-12-22T17:25:30.953Z,8.70
2022-12-22T17:28:33.631Z,8.70
2022-12-22T17:31:35.386Z,8.60
2022-12-22T17:34:37.196Z,8.60
2022-12-22T17:37:39.694Z,8.60
2022-12-22T17:40:41.567Z,8.60
2022-12-22T17:43:43.506Z,8.70
2022-12-22T17:46:45.316Z,8.60
2022-12-22T17:49:47.178Z,8.70
2022-12-22T17:52:49.438Z,8.70
2022-12-22T17:56:08.868Z,8.70
2022-12-22T17:59:12.111Z,8.60
2022-12-22T18:02:22.763Z,8.60
2022-12-22T18:05:27.777Z,8.70
2022-12-22T18:08:29.498Z,8.60
2022-12-22T18:11:31.228Z,8.70
2022-12-22T18:14:32.920Z,8.60
2022-12-22T18:17:36.158Z,8.60
2022-12-22T18:20:37.987Z,8.70
2022-12-22T18:23:43.229Z,8.70
2022-12-22T18:26:51.170Z,8.70
2022-12-22T18:29:52.897Z,8.70
2022-12-22T18:32:55.991Z,8.70
2022-12-22T18:35:59.100Z,8.70
2022-12-22T18:39:02.024Z,8.70
2022-12-22T18:42:10.226Z,8.70
2022-12-22T18:45:15.650Z,8.70
2022-12-22T18:48:17.333Z,8.70
2022-12-22T18:51:21.951Z,8.70
2022-12-22T18:54:32.385Z,8.70
2022-12-22T18:57:34.106Z,8.80
2022-12-22T19:00:37.076Z,8.80
2022-12-22T19:03:38.788Z,8.80
2022-12-22T19:06:40.443Z,8.80
2022-12-22T19:09:42.666Z,8.90
2022-12-22T19:12:47.791Z,9.00
2022-12-22T19:15:50.651Z,9.00
2022-12-22T19:18:52.444Z,9.00
2022-12-22T19:21:54.802Z,9.00
2022-12-22T19:24:58.885Z,9.00
2022-12-22T19:28:17.722Z,9.10
2022-12-22T19:31:24.569Z,9.10
2022-12-22T19:34:26.403Z,9.10
2022-12-22T19:37:28.068Z,9.80
2022-12-22T19:40:32.891Z,9.20
2022-12-22T19:43:34.653Z,9.20
2022-12-22T19:46:36.616Z,9.20
2022-12-22T19:49:38.422Z,9.20
2022-12-22T19:52:40.086Z,9.30
2022-12-22T19:55:45.377Z,9.30
2022-12-22T19:58:47.147Z,9.30
2022-12-22T20:01:48.920Z,9.40
2022-12-22T20:04:50.903Z,9.40
2022-12-22T20:07:55.453Z,9.40
2022-12-22T20:10:58.897Z,9.50
2022-12-22T20:14:01.083Z,9.50
2022-12-22T20:17:02.842Z,9.50
2022-12-22T20:20:05.167Z,9.50
2022-12-22T20:23:17.821Z,9.50
2022-12-22T20:26:22.597Z,9.60
2022-12-22T20:29:25.049Z,9.50
2022-12-22T20:32:28.346Z,9.60
2022-12-22T20:35:30.864Z,9.60
2022-12-22T20:38:41.320Z,9.60
2022-12-22T20:41:47.066Z,9.60
2022-12-22T20:45:02.685Z,9.60
2022-12-22T20:48:06.061Z,9.70
2022-12-22T20:51:12.866Z,9.70
2022-12-22T20:54:15.542Z,9.70
2022-12-22T20:57:17.500Z,9.80
2022-12-22T21:00:25.126Z,9.80
2022-12-22T21:03:27.768Z,9.80
2022-12-22T21:06:34.728Z,9.80
2022-12-22T21:09:36.769Z,9.80
2022-12-22T21:12:39.019Z,9.80
2022-12-22T21:15:42.019Z,9.80
2022-12-22T21:18:43.822Z,9.90
2022-12-22T21:21:46.012Z,9.90
2022-12-22T21:24:47.714Z,9.90
2022-12-22T21:27:51.518Z,9.90
2022-12-22T21:30:53.383Z,9.90
2022-12-22T21:33:55.176Z,9.90
2022-12-22T21:37:01.353Z,9.90
2022-12-22T21:40:03.445Z,9.70
2022-12-22T21:43:05.192Z,9.90
2022-12-22T21:46:10.383Z,9.90
2022-12-22T21:49:19.520Z,9.90
2022-12-22T21:52:21.203Z,9.90
2022-12-22T21:55:34.316Z,9.90
2022-12-22T21:58:36.096Z,9.90
2022-12-22T22:01:38.110Z,9.90
2022-12-22T22:04:39.814Z,9.90
2022-12-22T22:07:42.192Z,9.90
2022-12-22T22:10:44.232Z,9.90
2022-12-22T22:13:46.314Z,9.90
2022-12-22T22:16:48.388Z,10.00
2022-12-22T22:19:50.109Z,9.90
2022-12-22T22:22:53.132Z,10.00
2022-12-22T22:25:58.638Z,9.90
2022-12-22T22:29:00.361Z,9.90
2022-12-22T22:32:02.153Z,9.90
2022-12-22T22:35:04.988Z,9.90
2022-12-22T22:38:07.202Z,9.90
2022-12-22T22:41:09.054Z,9.90
2022-12-22T22:44:11.331Z,9.90
2022-12-22T22:47:13.215Z,9.90
2022-12-22T22:50:14.991Z,9.90
2022-12-22T22:53:16.867Z,10.00
2022-12-22T22:56:18.549Z,9.90
2022-12-22T22:59:20.391Z,9.90
2022-12-22T23:02:22.271Z,9.90
2022-12-22T23:05:24.280Z,9.90
2022-12-22T23:08:25.973Z,9.90
2022-12-22T23:11:27.699Z,9.90
2022-12-22T23:14:29.421Z,9.90
2022-12-22T23:17:31.119Z,9.90
2022-12-22T23:20:32.788Z,9.90
2022-12-22T23:23:34.960Z,9.90
2022-12-22T23:26:36.765Z,9.90
2022-12-22T23:29:38.970Z,9.90
2022-12-22T23:32:40.651Z,9.90
2022-12-22T23:35:45.144Z,9.90
2022-12-22T23:38:46.894Z,9.90
2022-12-22T23:41:48.633Z,9.90
2022-12-22T23:44:50.284Z,9.90
2022-12-22T23:47:51.946Z,9.90
2022-12-22T23:50:53.657Z,9.90
2022-12-22T23:53:56.603Z,9.90
2022-12-22T23:56:58.318Z,9.90
2022-12-22T23:59:59.977Z,9.80
